createdAt,value
2018-08-22T00:00:56.024Z,2.33
2018-08-22T00:03:25.011Z,3.10
2018-08-22T00:05:54.044Z,5.57
2018-08-22T00:08:28.233Z,3.27
2018-08-22T00:10:57.246Z,2.73
2018-08-22T00:13:26.220Z,2.37
2018-08-22T00:15:55.204Z,6.57
2018-08-22T00:18:24.228Z,4.40
2018-08-22T00:20:53.269Z,4.23
2018-08-22T00:23:22.255Z,3.03
2018-08-22T00:25:51.275Z,3.30
2018-08-22T00:28:20.313Z,2.17
2018-08-22T00:30:49.287Z,5.73
2018-08-22T00:33:18.351Z,2.43
2018-08-22T00:35:47.528Z,2.33
2018-08-22T00:38:16.743Z,2.37
2018-08-22T00:40:45.767Z,3.27
2018-08-22T00:43:14.752Z,2.50
2018-08-22T00:45:43.735Z,1.90
2018-08-22T00:48:12.720Z,2.37
2018-08-22T00:50:41.705Z,4.03
2018-08-22T00:53:10.681Z,3.10
2018-08-22T00:55:39.688Z,5.30
2018-08-22T00:58:08.673Z,2.90
2018-08-22T01:00:37.744Z,3.07
2018-08-22T01:03:06.732Z,2.80
2018-08-22T01:05:35.728Z,6.73
2018-08-22T01:08:04.709Z,2.47
2018-08-22T01:10:33.668Z,2.70
2018-08-22T01:13:02.742Z,3.77
2018-08-22T01:15:31.700Z,5.33
2018-08-22T01:18:00.721Z,3.03
2018-08-22T01:20:29.708Z,4.13
2018-08-22T01:22:58.700Z,3.47
2018-08-22T01:25:27.676Z,3.93
2018-08-22T01:27:56.731Z,3.10
2018-08-22T01:30:25.677Z,5.50
2018-08-22T01:32:54.656Z,5.30
2018-08-22T01:35:23.636Z,3.30
2018-08-22T01:37:52.634Z,3.30
2018-08-22T01:40:21.608Z,3.63
2018-08-22T01:42:50.596Z,3.53
2018-08-22T01:45:19.580Z,8.20
2018-08-22T01:47:48.617Z,3.53
2018-08-22T01:50:17.620Z,2.97
2018-08-22T01:52:46.633Z,3.30
2018-08-22T01:55:15.599Z,4.50
2018-08-22T01:57:44.572Z,6.07
2018-08-22T02:00:13.619Z,3.53
2018-08-22T02:02:42.580Z,2.90
2018-08-22T02:05:11.603Z,3.87
2018-08-22T02:07:40.571Z,5.20
2018-08-22T02:10:09.560Z,3.23
2018-08-22T02:12:38.545Z,3.33
2018-08-22T02:15:07.557Z,3.43
2018-08-22T02:17:37.339Z,3.27
2018-08-22T02:20:06.361Z,4.13
2018-08-22T02:22:35.392Z,6.83
2018-08-22T02:25:04.576Z,5.30
2018-08-22T02:27:33.541Z,6.97
2018-08-22T02:30:02.536Z,4.13
2018-08-22T02:32:31.540Z,5.07
2018-08-22T02:35:00.552Z,6.33
2018-08-22T02:37:29.528Z,4.00
2018-08-22T02:39:58.562Z,3.40
2018-08-22T02:42:27.581Z,4.07
2018-08-22T02:44:56.612Z,4.40
2018-08-22T02:47:25.606Z,4.57
2018-08-22T02:49:54.596Z,4.10
2018-08-22T02:52:23.589Z,4.23
2018-08-22T02:54:52.574Z,5.03
2018-08-22T02:57:21.581Z,6.63
2018-08-22T02:59:50.576Z,5.63
2018-08-22T03:02:19.556Z,4.57
2018-08-22T03:04:48.537Z,4.17
2018-08-22T03:07:17.623Z,4.90
2018-08-22T03:09:46.601Z,4.13
2018-08-22T03:12:15.580Z,4.37
2018-08-22T03:14:44.586Z,4.20
2018-08-22T03:17:13.587Z,4.17
2018-08-22T03:19:42.560Z,7.50
2018-08-22T03:22:11.536Z,4.80
2018-08-22T03:24:40.581Z,3.90
2018-08-22T03:27:09.612Z,6.50
2018-08-22T03:29:38.637Z,4.73
2018-08-22T03:32:07.636Z,4.57
2018-08-22T03:34:36.668Z,4.70
2018-08-22T03:37:05.636Z,6.03
2018-08-22T03:39:34.618Z,4.20
2018-08-22T03:42:03.625Z,5.40
2018-08-22T03:44:32.664Z,6.40
2018-08-22T03:47:01.624Z,4.83
2018-08-22T03:49:30.661Z,5.23
2018-08-22T03:51:59.632Z,4.57
2018-08-22T03:54:28.624Z,5.43
2018-08-22T03:56:57.609Z,6.07
2018-08-22T03:59:26.637Z,5.17
2018-08-22T04:01:55.661Z,8.90
2018-08-22T04:04:24.661Z,6.30
2018-08-22T04:06:53.649Z,7.87
2018-08-22T04:09:22.661Z,6.30
2018-08-22T04:11:51.637Z,5.20
2018-08-22T04:14:20.637Z,5.87
2018-08-22T04:16:49.640Z,5.37
2018-08-22T04:19:18.637Z,5.50
2018-08-22T04:21:47.634Z,5.17
2018-08-22T04:24:16.794Z,15.23
2018-08-22T04:26:45.762Z,8.17
2018-08-22T04:29:21.448Z,5.13
2018-08-22T04:31:50.454Z,6.50
2018-08-22T04:34:19.432Z,7.80
2018-08-22T04:36:48.513Z,5.37
2018-08-22T04:39:17.495Z,5.43
2018-08-22T04:41:46.498Z,6.10
2018-08-22T04:44:15.517Z,6.10
2018-08-22T04:46:44.505Z,8.70
2018-08-22T04:49:13.497Z,6.77
2018-08-22T04:51:42.491Z,6.43
2018-08-22T04:54:11.491Z,5.30
2018-08-22T04:56:40.501Z,9.03
2018-08-22T04:59:09.480Z,7.53
2018-08-22T05:01:38.449Z,6.67
2018-08-22T05:04:07.437Z,7.17
2018-08-22T05:06:36.466Z,6.00
2018-08-22T05:09:06.732Z,5.80
2018-08-22T05:11:35.728Z,6.97
2018-08-22T05:14:04.858Z,7.00
2018-08-22T05:16:33.932Z,6.13
2018-08-22T05:19:02.894Z,7.73
2018-08-22T05:21:31.924Z,5.73
2018-08-22T05:24:00.905Z,13.47
2018-08-22T05:26:29.957Z,7.53
2018-08-22T05:28:58.908Z,8.90
2018-08-22T05:31:27.897Z,7.27
2018-08-22T05:33:56.860Z,5.83
2018-08-22T05:36:25.824Z,6.70
2018-08-22T05:38:54.813Z,7.53
2018-08-22T05:41:23.800Z,10.67
2018-08-22T05:43:52.784Z,8.50
2018-08-22T05:46:21.768Z,11.63
2018-08-22T05:48:50.828Z,15.73
2018-08-22T05:51:19.858Z,23.77
2018-08-22T05:53:48.868Z,16.20
2018-08-22T05:56:17.896Z,18.13
2018-08-22T05:58:46.884Z,13.53
2018-08-22T06:01:15.874Z,21.00
2018-08-22T06:03:44.849Z,15.07
2018-08-22T06:06:14.011Z,26.97
2018-08-22T06:08:43.000Z,22.10
2018-08-22T06:11:12.000Z,15.97
2018-08-22T06:13:41.370Z,24.20
2018-08-22T06:16:10.380Z,13.33
2018-08-22T06:18:39.389Z,22.53
2018-08-22T06:21:08.464Z,11.30
2018-08-22T06:23:37.506Z,15.93
2018-08-22T06:26:06.565Z,17.00
2018-08-22T06:28:35.573Z,13.87
2018-08-22T06:31:04.945Z,9.63
2018-08-22T06:33:33.709Z,21.93
2018-08-22T06:36:02.789Z,14.77
2018-08-22T06:38:31.773Z,15.93
2018-08-22T06:41:00.773Z,20.57
2018-08-22T06:43:29.871Z,8.03
2018-08-22T06:45:59.003Z,13.20
2018-08-22T06:48:28.028Z,14.93
2018-08-22T06:50:57.155Z,12.50
2018-08-22T06:53:26.146Z,15.57
2018-08-22T06:55:55.181Z,9.27
2018-08-22T06:58:24.185Z,9.00
2018-08-22T07:00:53.180Z,10.97
2018-08-22T07:03:22.167Z,9.60
2018-08-22T07:05:51.174Z,13.90
2018-08-22T07:08:20.198Z,8.07
2018-08-22T07:10:49.200Z,12.20
2018-08-22T07:13:18.314Z,11.43
2018-08-22T07:15:47.328Z,17.00
2018-08-22T07:18:16.456Z,26.03
2018-08-22T07:20:45.480Z,20.50
2018-08-22T07:23:14.503Z,11.77
2018-08-22T07:25:43.502Z,12.50
2018-08-22T07:28:12.513Z,13.27
2018-08-22T07:30:41.533Z,13.73
2018-08-22T07:33:10.574Z,16.70
2018-08-22T07:35:39.722Z,16.10
2018-08-22T07:38:08.745Z,10.67
2018-08-22T07:40:37.892Z,7.97
2018-08-22T07:43:07.329Z,8.03
2018-08-22T07:45:37.529Z,6.77
2018-08-22T07:48:06.550Z,6.00
2018-08-22T07:50:35.596Z,7.03
2018-08-22T07:53:05.680Z,6.43
2018-08-22T07:55:38.815Z,5.30
2018-08-22T07:58:07.786Z,7.30
2018-08-22T08:00:36.849Z,5.37
2018-08-22T08:03:05.902Z,7.20
2018-08-22T08:05:34.987Z,4.73
2018-08-22T08:08:03.975Z,6.70
2018-08-22T08:10:37.064Z,9.53
2018-08-22T08:13:13.692Z,4.47
2018-08-22T08:15:42.852Z,8.07
2018-08-22T08:18:11.849Z,4.70
2018-08-22T08:20:40.866Z,5.77
2018-08-22T08:23:09.904Z,4.50
2018-08-22T08:25:38.887Z,6.20
2018-08-22T08:28:07.998Z,4.97
2018-08-22T08:30:37.229Z,6.43
2018-08-22T08:33:06.207Z,9.63
2018-08-22T08:35:35.227Z,8.47
2018-08-22T08:38:04.408Z,5.17
2018-08-22T08:40:33.441Z,8.47
2018-08-22T08:43:03.110Z,6.50
2018-08-22T08:45:32.136Z,12.37
2018-08-22T08:48:01.184Z,11.30
2018-08-22T08:50:30.182Z,10.30
2018-08-22T08:52:59.245Z,5.40
2018-08-22T08:55:28.299Z,5.30
2018-08-22T08:57:57.286Z,6.30
2018-08-22T09:00:26.304Z,5.80
2018-08-22T09:02:55.335Z,8.30
2018-08-22T09:05:24.356Z,12.33
2018-08-22T09:07:53.378Z,8.60
2018-08-22T09:10:22.369Z,8.03
2018-08-22T09:12:51.421Z,7.80
2018-08-22T09:15:20.447Z,6.67
2018-08-22T09:17:49.435Z,8.30
2018-08-22T09:20:18.459Z,7.67
2018-08-22T09:22:47.491Z,7.50
2018-08-22T09:25:16.538Z,7.70
2018-08-22T09:27:45.543Z,7.40
2018-08-22T09:30:14.612Z,7.73
2018-08-22T09:32:43.565Z,10.10
2018-08-22T09:35:12.824Z,7.80
2018-08-22T09:37:41.885Z,7.23
2018-08-22T09:40:10.913Z,7.07
2018-08-22T09:42:39.911Z,7.50
2018-08-22T09:45:08.893Z,6.53
2018-08-22T09:47:37.983Z,7.47
2018-08-22T09:50:07.030Z,10.83
2018-08-22T09:52:36.292Z,7.47
2018-08-22T09:55:06.465Z,8.70
2018-08-22T09:57:35.472Z,9.03
2018-08-22T10:00:05.595Z,8.17
2018-08-22T10:02:34.559Z,9.80
2018-08-22T10:05:03.552Z,8.03
2018-08-22T10:07:32.685Z,8.13
2018-08-22T10:10:01.736Z,8.20
2018-08-22T10:12:30.690Z,6.30
2018-08-22T10:14:59.704Z,9.03
2018-08-22T10:17:28.774Z,7.27
2018-08-22T10:19:57.824Z,7.20
2018-08-22T10:22:26.803Z,7.30
2018-08-22T10:24:55.805Z,8.43
2018-08-22T10:27:24.824Z,8.43
2018-08-22T10:29:53.852Z,7.73
2018-08-22T10:32:23.764Z,13.30
2018-08-22T10:34:52.828Z,8.13
2018-08-22T10:37:21.861Z,8.53
2018-08-22T10:39:50.837Z,8.50
2018-08-22T10:42:19.844Z,8.47
2018-08-22T10:44:48.898Z,8.27
2018-08-22T10:47:17.901Z,8.63
2018-08-22T10:49:46.977Z,10.00
2018-08-22T10:52:16.005Z,8.90
2018-08-22T10:54:45.016Z,8.93
2018-08-22T10:57:14.029Z,8.60
2018-08-22T10:59:43.197Z,7.67
2018-08-22T11:02:12.400Z,8.53
2018-08-22T11:04:41.437Z,8.27
2018-08-22T11:07:10.565Z,7.80
2018-08-22T11:09:39.539Z,7.53
2018-08-22T11:12:08.599Z,8.17
2018-08-22T11:14:37.613Z,8.30
2018-08-22T11:17:06.757Z,8.90
2018-08-22T11:19:35.781Z,7.80
2018-08-22T11:22:15.944Z,10.13
2018-08-22T11:24:56.117Z,7.23
2018-08-22T11:27:36.328Z,8.63
2018-08-22T11:30:16.488Z,8.00
2018-08-22T11:32:56.435Z,8.50
2018-08-22T11:35:24.323Z,7.47
2018-08-22T11:37:53.363Z,7.47
2018-08-22T11:40:22.356Z,9.87
2018-08-22T11:42:51.346Z,7.83
2018-08-22T11:45:20.375Z,8.20
2018-08-22T11:47:49.348Z,8.30
2018-08-22T11:50:18.381Z,7.63
2018-08-22T11:52:47.416Z,9.90
2018-08-22T11:55:16.459Z,7.43
2018-08-22T11:57:45.469Z,7.60
2018-08-22T12:00:14.482Z,8.37
2018-08-22T12:02:43.477Z,7.13
2018-08-22T12:05:12.493Z,8.93
2018-08-22T12:07:41.576Z,6.90
2018-08-22T12:10:10.611Z,8.13
2018-08-22T12:12:39.625Z,8.47
2018-08-22T12:15:08.617Z,8.77
2018-08-22T12:17:37.666Z,8.07
2018-08-22T12:20:06.701Z,8.37
2018-08-22T12:22:35.720Z,8.60
2018-08-22T12:25:04.763Z,8.80
2018-08-22T12:27:33.834Z,8.50
2018-08-22T12:30:02.876Z,8.53
2018-08-22T12:32:31.905Z,8.70
2018-08-22T12:35:00.928Z,8.67
2018-08-22T12:37:29.928Z,8.03
2018-08-22T12:39:58.934Z,8.37
2018-08-22T12:42:27.996Z,7.60
2018-08-22T12:44:57.039Z,7.33
2018-08-22T12:47:26.027Z,8.63
2018-08-22T12:49:55.013Z,8.17
2018-08-22T12:52:24.043Z,7.20
2018-08-22T12:54:53.089Z,8.53
2018-08-22T12:57:22.084Z,8.90
2018-08-22T12:59:51.111Z,9.03
2018-08-22T13:02:20.110Z,7.80
2018-08-22T13:04:49.124Z,7.90
2018-08-22T13:07:18.096Z,8.93
2018-08-22T13:09:47.139Z,8.33
2018-08-22T13:12:16.140Z,8.37
2018-08-22T13:14:45.154Z,8.23
2018-08-22T13:17:14.381Z,9.00
2018-08-22T13:19:43.367Z,8.67
2018-08-22T13:22:12.359Z,7.97
2018-08-22T13:24:41.403Z,7.97
2018-08-22T13:27:10.461Z,7.40
2018-08-22T13:29:39.438Z,7.60
2018-08-22T13:32:08.433Z,7.43
2018-08-22T13:34:37.598Z,9.93
2018-08-22T13:37:06.659Z,7.90
2018-08-22T13:39:35.646Z,7.93
2018-08-22T13:42:04.727Z,7.80
2018-08-22T13:44:33.763Z,7.97
2018-08-22T13:47:02.804Z,7.50
2018-08-22T13:49:31.817Z,7.57
2018-08-22T13:52:00.865Z,7.63
2018-08-22T13:54:29.880Z,8.43
2018-08-22T13:56:58.957Z,7.47
2018-08-22T13:59:28.384Z,7.37
2018-08-22T14:01:57.396Z,7.43
2018-08-22T14:04:26.385Z,8.20
2018-08-22T14:06:55.429Z,6.70
2018-08-22T14:09:24.441Z,7.10
2018-08-22T14:11:53.499Z,7.70
2018-08-22T14:14:22.496Z,7.30
2018-08-22T14:16:51.583Z,8.83
2018-08-22T14:19:20.622Z,7.57
2018-08-22T14:21:49.633Z,7.33
2018-08-22T14:24:18.706Z,10.53
2018-08-22T14:26:47.724Z,7.40
2018-08-22T14:29:16.802Z,6.37
2018-08-22T14:31:45.774Z,7.03
2018-08-22T14:34:14.874Z,6.57
2018-08-22T14:36:43.889Z,6.70
2018-08-22T14:39:13.328Z,6.57
2018-08-22T14:41:42.421Z,6.33
2018-08-22T14:44:11.478Z,7.10
2018-08-22T14:46:40.529Z,7.33
2018-08-22T14:49:09.544Z,7.00
2018-08-22T14:51:38.624Z,6.60
2018-08-22T14:54:07.682Z,6.37
2018-08-22T14:56:36.844Z,8.20
2018-08-22T14:59:06.165Z,7.97
2018-08-22T15:01:35.161Z,7.20
2018-08-22T15:04:04.188Z,6.30
2018-08-22T15:06:33.208Z,7.13
2018-08-22T15:09:21.694Z,7.90
2018-08-22T15:11:50.716Z,7.13
2018-08-22T15:14:19.789Z,6.13
2018-08-22T15:16:48.823Z,6.00
2018-08-22T15:19:17.896Z,11.90
2018-08-22T15:21:46.872Z,6.10
2018-08-22T15:24:15.912Z,6.43
2018-08-22T15:26:45.042Z,8.67
2018-08-22T15:29:13.970Z,6.60
2018-08-22T15:31:43.040Z,6.20
2018-08-22T15:34:12.146Z,7.70
2018-08-22T15:36:41.138Z,8.03
2018-08-22T15:39:10.935Z,6.33
2018-08-22T15:41:39.934Z,6.83
2018-08-22T15:44:08.941Z,7.60
2018-08-22T15:46:37.952Z,6.50
2018-08-22T15:49:06.975Z,6.87
2018-08-22T15:51:36.030Z,9.03
2018-08-22T15:54:10.281Z,6.60
2018-08-22T15:56:40.500Z,6.63
2018-08-22T15:59:10.344Z,5.80
2018-08-22T16:01:39.597Z,7.30
2018-08-22T16:04:08.938Z,6.27
2018-08-22T16:06:38.004Z,7.03
2018-08-22T16:09:10.924Z,6.93
2018-08-22T16:11:39.976Z,7.53
2018-08-22T16:14:09.056Z,7.53
2018-08-22T16:16:38.085Z,6.53
2018-08-22T16:19:07.108Z,7.30
2018-08-22T16:21:37.744Z,6.93
2018-08-22T16:24:06.991Z,9.00
2018-08-22T16:26:35.969Z,9.47
2018-08-22T16:29:05.011Z,5.97
2018-08-22T16:31:39.153Z,7.30
2018-08-22T16:34:10.540Z,8.80
2018-08-22T16:36:40.075Z,8.43
2018-08-22T16:39:09.934Z,7.70
2018-08-22T16:41:39.490Z,8.13
2018-08-22T16:44:09.753Z,7.13
2018-08-22T16:46:39.231Z,7.83
2018-08-22T16:49:08.746Z,7.67
2018-08-22T16:51:38.205Z,8.23
2018-08-22T16:54:09.206Z,8.17
2018-08-22T16:56:38.912Z,8.83
2018-08-22T16:59:08.587Z,10.83
2018-08-22T17:01:39.556Z,8.70
2018-08-22T17:04:09.027Z,7.93
2018-08-22T17:06:38.363Z,7.40
2018-08-22T17:09:09.497Z,10.67
2018-08-22T17:11:38.899Z,8.13
2018-08-22T17:14:08.063Z,7.63
2018-08-22T17:16:37.261Z,11.00
2018-08-22T17:19:06.485Z,12.17
2018-08-22T17:21:35.683Z,22.30
2018-08-22T17:24:04.867Z,8.70
2018-08-22T17:26:34.030Z,10.00
2018-08-22T17:29:03.995Z,9.80
2018-08-22T17:31:36.255Z,12.07
2018-08-22T17:34:05.539Z,10.10
2018-08-22T17:36:34.864Z,11.30
2018-08-22T17:39:04.583Z,9.60
2018-08-22T17:41:33.890Z,9.43
2018-08-22T17:44:08.549Z,10.07
2018-08-22T17:46:39.953Z,9.90
2018-08-22T17:49:09.206Z,9.50
2018-08-22T17:51:50.805Z,10.30
2018-08-22T17:54:21.037Z,9.70
2018-08-22T17:56:55.191Z,10.53
2018-08-22T17:59:24.529Z,10.00
2018-08-22T18:01:54.701Z,10.73
2018-08-22T18:04:24.380Z,12.63
2018-08-22T18:06:53.819Z,10.00
2018-08-22T18:09:23.071Z,10.87
2018-08-22T18:11:52.582Z,9.23
2018-08-22T18:14:21.938Z,11.43
2018-08-22T18:16:55.384Z,10.03
2018-08-22T18:19:24.807Z,9.57
2018-08-22T18:21:54.844Z,8.90
2018-08-22T18:24:24.108Z,10.00
2018-08-22T18:26:53.410Z,9.10
2018-08-22T18:29:22.933Z,8.40
2018-08-22T18:31:52.439Z,9.40
2018-08-22T18:34:21.708Z,9.60
2018-08-22T18:36:51.270Z,9.90
2018-08-22T18:39:20.494Z,9.13
2018-08-22T18:41:50.851Z,10.30
2018-08-22T18:44:20.073Z,9.53
2018-08-22T18:46:49.530Z,10.70
2018-08-22T18:49:19.600Z,12.73
2018-08-22T18:51:49.115Z,11.83
2018-08-22T18:54:18.549Z,10.13
2018-08-22T18:56:47.789Z,9.80
2018-08-22T18:59:25.094Z,11.70
2018-08-22T19:01:54.492Z,11.33
2018-08-22T19:04:24.372Z,12.00
2018-08-22T19:06:53.943Z,12.20
2018-08-22T19:09:23.693Z,12.43
2018-08-22T19:11:53.219Z,12.87
2018-08-22T19:14:37.896Z,14.13
2018-08-22T19:17:07.660Z,12.30
2018-08-22T19:19:41.236Z,11.30
2018-08-22T19:22:10.941Z,13.60
2018-08-22T19:24:40.424Z,13.50
2018-08-22T19:27:09.720Z,16.33
2018-08-22T19:29:38.920Z,15.50
2018-08-22T19:32:08.446Z,14.70
2018-08-22T19:34:37.804Z,13.37
2018-08-22T19:37:07.905Z,13.23
2018-08-22T19:39:37.534Z,14.53
2018-08-22T19:42:06.809Z,15.53
2018-08-22T19:44:36.935Z,12.90
2018-08-22T19:47:06.140Z,13.50
2018-08-22T19:49:36.770Z,14.17
2018-08-22T19:52:05.990Z,14.27
2018-08-22T19:54:35.208Z,16.00
2018-08-22T19:57:05.432Z,17.13
2018-08-22T19:59:34.630Z,17.17
2018-08-22T20:02:03.822Z,22.37
2018-08-22T20:04:37.064Z,20.57
2018-08-22T20:07:07.755Z,19.60
2018-08-22T20:09:42.564Z,18.20
2018-08-22T20:12:12.494Z,25.30
2018-08-22T20:14:52.377Z,21.83
2018-08-22T20:17:28.310Z,18.67
2018-08-22T20:20:05.092Z,16.83
2018-08-22T20:22:43.444Z,16.87
2018-08-22T20:25:13.047Z,14.13
2018-08-22T20:30:30.181Z,16.90
2018-08-22T20:33:08.909Z,20.10
2018-08-22T20:35:40.438Z,18.30
2018-08-22T20:38:11.467Z,18.70
2018-08-22T20:40:40.783Z,22.57
2018-08-22T20:43:20.043Z,21.03
2018-08-22T20:45:49.253Z,20.73
2018-08-22T20:48:18.782Z,22.73
2018-08-22T20:50:47.965Z,20.60
2018-08-22T20:53:18.004Z,21.23
2018-08-22T20:55:47.459Z,18.30
2018-08-22T20:58:20.855Z,17.07
2018-08-22T21:00:50.354Z,16.53
2018-08-22T21:03:19.575Z,16.57
2018-08-22T21:05:49.093Z,19.13
2018-08-22T21:08:18.263Z,21.20
2018-08-22T21:10:47.477Z,17.67
2018-08-22T21:13:22.478Z,20.60
2018-08-22T21:15:51.947Z,17.10
2018-08-22T21:18:21.448Z,18.73
2018-08-22T21:20:50.676Z,21.23
2018-08-22T21:23:20.128Z,19.37
2018-08-22T21:25:49.789Z,21.00
2018-08-22T21:28:25.504Z,21.23
2018-08-22T21:30:57.903Z,24.23
2018-08-22T21:33:28.747Z,24.63
2018-08-22T21:35:58.010Z,23.00
2018-08-22T21:38:27.279Z,24.13
2018-08-22T21:40:56.686Z,23.00
2018-08-22T21:43:25.859Z,24.43
2018-08-22T21:45:55.793Z,25.13
2018-08-22T21:48:26.270Z,25.17
2018-08-22T21:50:55.594Z,28.03
2018-08-22T21:53:25.437Z,28.53
2018-08-22T21:55:54.684Z,27.30
2018-08-22T21:58:23.899Z,24.47
2018-08-22T22:01:03.793Z,25.63
2018-08-22T22:03:33.365Z,29.63
2018-08-22T22:06:03.271Z,30.73
2018-08-22T22:08:32.589Z,31.30
2018-08-22T22:11:03.821Z,30.97
2018-08-22T22:13:33.167Z,30.97
2018-08-22T22:16:04.584Z,31.03
2018-08-22T22:18:34.514Z,28.43
2018-08-22T22:21:16.379Z,27.70
2018-08-22T22:23:48.758Z,28.00
2018-08-22T22:26:19.345Z,28.47
2018-08-22T22:28:48.604Z,30.27
2018-08-22T22:31:18.317Z,31.90
2018-08-22T22:33:53.314Z,31.73
2018-08-22T22:36:22.578Z,34.37
2018-08-22T22:38:51.727Z,34.63
2018-08-22T22:41:21.602Z,36.53
2018-08-22T22:43:50.940Z,34.70
2018-08-22T22:46:21.879Z,30.87
2018-08-22T22:48:51.364Z,36.27
2018-08-22T22:51:21.199Z,33.90
2018-08-22T22:53:50.506Z,32.37
2018-08-22T22:56:19.700Z,32.03
2018-08-22T22:58:48.836Z,34.57
2018-08-22T23:01:18.007Z,32.50
2018-08-22T23:03:47.138Z,30.87
2018-08-22T23:06:16.352Z,30.80
2018-08-22T23:08:45.515Z,31.37
2018-08-22T23:11:14.693Z,32.40
2018-08-22T23:13:44.212Z,32.20
2018-08-22T23:16:13.736Z,32.40
2018-08-22T23:18:42.931Z,31.80
2018-08-22T23:21:12.304Z,32.13
2018-08-22T23:23:41.457Z,33.13
2018-08-22T23:26:15.780Z,34.97
2018-08-22T23:28:45.392Z,31.80
2018-08-22T23:31:17.865Z,31.67
2018-08-22T23:33:47.673Z,31.03
2018-08-22T23:36:17.149Z,33.40
2018-08-22T23:38:46.337Z,33.43
2018-08-22T23:41:16.047Z,33.80
2018-08-22T23:43:50.347Z,30.90
2018-08-22T23:46:19.845Z,28.17
2018-08-22T23:48:55.050Z,26.47
2018-08-22T23:51:24.214Z,26.87
2018-08-22T23:53:56.831Z,30.80
2018-08-22T23:56:27.164Z,28.23
2018-08-22T23:58:57.447Z,30.50
